Time;durP1;ratioP1;P1;durP2;ratioP2;P2;SDS_P1;SDS_P2;PMS_P1;PMS_P2;Temp;Humidity;BMP_temperature;BMP_pressure;BME280_temperature;BME280_humidity;BME280_pressure;Samples;Min_cycle;Max_cycle;Signal;HPM_P1;HPM_P2
2022/08/03 00:01:39;;;;;;;;;;;25.70;83.50;;;;;;5068367;28;20277;-60
2022/08/03 00:04:05;;;;;;;;;;;25.70;83.70;;;;;;5056495;28;20007;-61
2022/08/03 00:06:30;;;;;;;;;;;25.80;83.60;;;;;;5057150;28;19925;-61
2022/08/03 00:08:56;;;;;;;;;;;25.40;83.30;;;;;;5047643;28;19978;-61
2022/08/03 00:11:21;;;;;;;;;;;25.60;83.40;;;;;;5065898;28;19970;-62
2022/08/03 00:13:47;;;;;;;;;;;25.50;83.20;;;;;;5055196;28;19925;-61
2022/08/03 00:16:13;;;;;;;;;;;25.80;83.60;;;;;;5056903;28;19932;-62
2022/08/03 00:18:38;;;;;;;;;;;25.80;83.50;;;;;;5052205;28;20298;-61
2022/08/03 00:21:04;;;;;;;;;;;25.80;83.60;;;;;;5034537;28;20382;-61
2022/08/03 00:23:29;;;;;;;;;;;25.40;83.40;;;;;;5053495;28;20058;-61
2022/08/03 00:25:55;;;;;;;;;;;25.70;83.60;;;;;;5054828;28;19925;-64
2022/08/03 00:28:21;;;;;;;;;;;25.70;84.30;;;;;;5056892;28;19925;-62
2022/08/03 00:30:46;;;;;;;;;;;25.50;83.50;;;;;;5055386;28;19924;-63
2022/08/03 00:33:12;;;;;;;;;;;25.40;83.40;;;;;;5050514;28;19929;-62
2022/08/03 00:35:37;;;;;;;;;;;25.80;83.70;;;;;;5054386;28;19933;-61
2022/08/03 00:38:03;;;;;;;;;;;25.40;83.40;;;;;;5064965;28;19939;-61
2022/08/03 00:40:29;;;;;;;;;;;25.60;83.60;;;;;;5033715;28;19928;-61
2022/08/03 00:42:55;;;;;;;;;;;25.40;83.50;;;;;;5055027;28;19971;-62
2022/08/03 00:45:22;;;;;;;;;;;25.70;83.90;;;;;;5055502;28;19936;-62
2022/08/03 00:47:47;;;;;;;;;;;25.50;83.60;;;;;;5060474;28;20382;-61
2022/08/03 00:50:13;;;;;;;;;;;25.60;83.70;;;;;;5047857;28;19979;-62
2022/08/03 00:52:39;;;;;;;;;;;25.50;83.50;;;;;;5052594;28;20259;-63
2022/08/03 00:55:04;;;;;;;;;;;25.30;83.50;;;;;;5054901;28;20245;-61
2022/08/03 00:57:30;;;;;;;;;;;25.50;83.20;;;;;;5054923;28;19925;-61
2022/08/03 00:59:56;;;;;;;;;;;25.50;83.60;;;;;;5051997;28;19998;-61
2022/08/03 01:02:22;;;;;;;;;;;25.70;83.60;;;;;;5072484;28;19925;-61
2022/08/03 01:04:47;;;;;;;;;;;25.50;83.70;;;;;;5067614;28;20019;-62
2022/08/03 01:07:17;;;;;;;;;;;25.50;83.60;;;;;;5055076;28;19924;-61
2022/08/03 01:09:45;;;;;;;;;;;25.40;82.40;;;;;;5025932;28;19931;-61
2022/08/03 01:12:43;;;;;;;;;;;25.40;83.80;;;;;;5061894;28;20300;-60
2022/08/03 01:15:10;;;;;;;;;;;25.50;82.50;;;;;;5012522;28;19932;-61
2022/08/03 01:17:48;;;;;;;;;;;25.40;83.90;;;;;;5010606;28;19936;-61
2022/08/03 01:20:14;;;;;;;;;;;25.40;83.90;;;;;;4992577;28;19932;-62
2022/08/03 01:22:39;;;;;;;;;;;25.50;83.60;;;;;;5007909;28;20431;-61
2022/08/03 01:25:06;;;;;;;;;;;25.60;84.00;;;;;;5012489;28;19930;-61
2022/08/03 01:27:42;;;;;;;;;;;25.80;84.00;;;;;;4996261;28;19921;-61
2022/08/03 01:30:08;;;;;;;;;;;25.40;82.50;;;;;;4996028;28;19929;-61
2022/08/03 01:32:47;;;;;;;;;;;25.70;83.70;;;;;;4997041;28;19926;-61
2022/08/03 01:35:13;;;;;;;;;;;25.50;82.60;;;;;;5000653;28;20295;-61
2022/08/03 01:37:52;;;;;;;;;;;25.50;84.10;;;;;;4992140;28;19969;-61
2022/08/03 01:40:18;;;;;;;;;;;25.30;82.50;;;;;;4992657;28;20016;-62
2022/08/03 01:42:44;;;;;;;;;;;25.50;84.10;;;;;;4991906;28;20000;-61
2022/08/03 01:45:10;;;;;;;;;;;25.40;83.70;;;;;;5000735;28;20028;-61
2022/08/03 01:47:35;;;;;;;;;;;25.40;84.00;;;;;;5012105;28;19933;-62
2022/08/03 01:50:01;;;;;;;;;;;25.70;84.10;;;;;;5004705;28;19925;-61
2022/08/03 01:52:27;;;;;;;;;;;25.30;83.80;;;;;;5058496;28;20366;-61
2022/08/03 01:54:52;;;;;;;;;;;25.40;83.90;;;;;;5037161;28;19942;-61
2022/08/03 01:57:18;;;;;;;;;;;25.30;83.80;;;;;;5052444;28;19982;-61
2022/08/03 01:59:44;;;;;;;;;;;25.40;83.90;;;;;;5052610;28;19925;-61
2022/08/03 02:02:11;;;;;;;;;;;25.20;83.80;;;;;;5054488;28;20322;-61
2022/08/03 02:04:36;;;;;;;;;;;25.20;84.00;;;;;;5054253;28;19979;-61
2022/08/03 02:07:02;;;;;;;;;;;25.10;83.70;;;;;;5053164;28;19925;-61
2022/08/03 02:09:27;;;;;;;;;;;25.30;84.00;;;;;;5060908;28;20400;-62
2022/08/03 02:11:53;;;;;;;;;;;25.40;83.80;;;;;;5073725;28;19979;-62
2022/08/03 02:14:19;;;;;;;;;;;25.40;84.00;;;;;;5067195;28;19925;-61
2022/08/03 02:16:44;;;;;;;;;;;25.40;83.90;;;;;;5057130;28;19925;-61
2022/08/03 02:19:10;;;;;;;;;;;25.70;84.30;;;;;;5053438;28;19947;-61
2022/08/03 02:21:36;;;;;;;;;;;25.20;83.70;;;;;;5053105;28;19932;-62
2022/08/03 02:24:03;;;;;;;;;;;25.30;84.00;;;;;;5019154;28;19924;-61
2022/08/03 02:26:29;;;;;;;;;;;25.60;84.40;;;;;;5062514;28;19925;-64
2022/08/03 02:28:55;;;;;;;;;;;25.30;84.20;;;;;;5064929;28;19930;-61
2022/08/03 02:31:26;;;;;;;;;;;25.40;84.20;;;;;;5073351;28;19924;-61
2022/08/03 02:33:52;;;;;;;;;;;25.70;83.10;;;;;;5073599;28;19928;-61
2022/08/03 02:36:22;;;;;;;;;;;25.10;84.20;;;;;;5059697;28;19936;-61
2022/08/03 02:38:48;;;;;;;;;;;25.40;83.00;;;;;;5035994;28;20389;-61
2022/08/03 02:41:14;;;;;;;;;;;25.30;84.30;;;;;;5053478;28;19925;-62
2022/08/03 02:43:40;;;;;;;;;;;25.50;84.40;;;;;;5062280;28;19928;-61
2022/08/03 02:46:06;;;;;;;;;;;25.20;84.10;;;;;;5069894;28;19947;-61
2022/08/03 02:48:31;;;;;;;;;;;25.20;84.00;;;;;;5066965;28;19978;-61
2022/08/03 02:50:57;;;;;;;;;;;25.60;84.30;;;;;;5054804;28;19929;-61
2022/08/03 02:53:23;;;;;;;;;;;25.20;84.20;;;;;;5072797;28;19986;-61
2022/08/03 02:55:49;;;;;;;;;;;25.20;84.10;;;;;;5072267;28;19968;-61
2022/08/03 02:58:16;;;;;;;;;;;25.50;84.50;;;;;;5063458;28;20015;-62
2022/08/03 03:00:42;;;;;;;;;;;25.40;84.40;;;;;;5057243;28;20417;-62
2022/08/03 03:03:08;;;;;;;;;;;25.20;84.30;;;;;;5053075;28;20329;-61
2022/08/03 03:05:34;;;;;;;;;;;25.50;84.30;;;;;;5052217;28;20023;-61
2022/08/03 03:07:59;;;;;;;;;;;25.40;84.10;;;;;;5056748;28;19924;-63
2022/08/03 03:10:25;;;;;;;;;;;25.10;84.00;;;;;;5071656;28;19924;-63
2022/08/03 03:12:51;;;;;;;;;;;25.30;84.00;;;;;;5074057;28;20439;-61
2022/08/03 03:15:17;;;;;;;;;;;25.10;84.20;;;;;;5076808;28;20297;-64
2022/08/03 03:17:43;;;;;;;;;;;25.40;84.40;;;;;;5071266;28;19924;-62
2022/08/03 03:20:09;;;;;;;;;;;25.40;84.10;;;;;;5056789;28;19924;-61
2022/08/03 03:22:34;;;;;;;;;;;25.10;83.90;;;;;;5056442;28;19924;-61
2022/08/03 03:25:00;;;;;;;;;;;25.00;84.10;;;;;;5055303;28;19951;-61
2022/08/03 03:27:25;;;;;;;;;;;25.20;84.00;;;;;;5055108;28;19970;-61
2022/08/03 03:29:51;;;;;;;;;;;25.30;84.30;;;;;;5067765;28;19940;-61
2022/08/03 03:32:17;;;;;;;;;;;25.00;84.00;;;;;;5058328;28;19925;-62
2022/08/03 03:34:42;;;;;;;;;;;25.00;84.10;;;;;;5064228;28;19975;-61
2022/08/03 03:37:08;;;;;;;;;;;25.10;84.20;;;;;;5056489;28;19925;-61
2022/08/03 03:39:35;;;;;;;;;;;25.20;84.30;;;;;;5060837;28;19921;-61
2022/08/03 03:42:01;;;;;;;;;;;25.20;84.20;;;;;;5054770;28;19925;-61
2022/08/03 03:44:27;;;;;;;;;;;25.30;84.50;;;;;;5076392;28;20342;-62
2022/08/03 03:46:53;;;;;;;;;;;25.30;84.50;;;;;;5076335;28;19948;-61
2022/08/03 03:49:19;;;;;;;;;;;25.10;84.40;;;;;;5074675;28;20400;-65
2022/08/03 03:51:44;;;;;;;;;;;25.30;84.90;;;;;;5058895;28;19921;-61
2022/08/03 03:54:10;;;;;;;;;;;25.30;84.50;;;;;;5054967;28;19932;-63
2022/08/03 03:56:36;;;;;;;;;;;25.20;84.30;;;;;;5038246;28;19925;-63
2022/08/03 03:59:01;;;;;;;;;;;25.10;84.40;;;;;;5056327;28;19971;-61
2022/08/03 04:01:27;;;;;;;;;;;25.10;84.30;;;;;;5044980;28;19929;-61
2022/08/03 04:03:53;;;;;;;;;;;25.40;84.50;;;;;;5058195;28;19931;-61
2022/08/03 04:11:52;;;;;;;;;;;25.00;83.50;;;;;;5055156;28;21354;-62
2022/08/03 04:14:19;;;;;;;;;;;25.20;83.30;;;;;;5055764;28;19929;-62
2022/08/03 04:16:46;;;;;;;;;;;25.10;84.60;;;;;;5054276;28;19979;-61
2022/08/03 04:19:16;;;;;;;;;;;25.40;84.90;;;;;;5054536;28;20016;-61
2022/08/03 04:21:42;;;;;;;;;;;25.40;85.00;;;;;;5054310;28;19971;-67
2022/08/03 04:24:08;;;;;;;;;;;25.10;84.70;;;;;;5039496;28;19929;-61
2022/08/03 04:26:35;;;;;;;;;;;25.20;84.50;;;;;;5073052;28;20011;-61
2022/08/03 04:29:00;;;;;;;;;;;24.90;84.60;;;;;;5057689;28;20362;-62
2022/08/03 04:31:26;;;;;;;;;;;25.20;84.40;;;;;;5075440;28;19983;-61
2022/08/03 04:33:52;;;;;;;;;;;25.20;84.50;;;;;;5071466;28;20343;-61
2022/08/03 04:36:19;;;;;;;;;;;25.40;84.60;;;;;;5075343;28;19928;-62
2022/08/03 04:38:50;;;;;;;;;;;25.40;84.80;;;;;;5073845;28;20015;-61
2022/08/03 04:41:16;;;;;;;;;;;25.30;83.30;;;;;;5075191;28;19925;-63
2022/08/03 04:43:41;;;;;;;;;;;25.40;84.50;;;;;;5068776;28;19924;-61
2022/08/03 04:46:07;;;;;;;;;;;25.50;84.50;;;;;;5072185;28;20020;-61
2022/08/03 04:48:32;;;;;;;;;;;25.50;84.30;;;;;;5059218;28;19925;-61
2022/08/03 04:50:59;;;;;;;;;;;25.50;84.30;;;;;;5053917;28;19929;-61
2022/08/03 04:53:25;;;;;;;;;;;25.60;84.30;;;;;;5053507;28;19979;-61
2022/08/03 04:55:50;;;;;;;;;;;25.50;84.20;;;;;;5059113;28;19929;-61
2022/08/03 04:58:16;;;;;;;;;;;25.40;84.00;;;;;;5037090;28;19985;-61
2022/08/03 05:00:42;;;;;;;;;;;25.70;84.30;;;;;;5073276;28;19924;-61
2022/08/03 05:03:07;;;;;;;;;;;25.60;84.10;;;;;;5074764;28;20019;-62
2022/08/03 05:05:33;;;;;;;;;;;25.60;83.90;;;;;;5049870;28;19925;-61
2022/08/03 05:07:59;;;;;;;;;;;25.60;83.60;;;;;;5073830;28;19929;-67
2022/08/03 05:10:24;;;;;;;;;;;26.00;84.10;;;;;;5066845;28;19924;-67
2022/08/03 05:12:51;;;;;;;;;;;26.00;83.40;;;;;;5068121;28;19934;-63
2022/08/03 05:15:16;;;;;;;;;;;25.80;83.50;;;;;;5067176;28;20348;-65
2022/08/03 05:17:42;;;;;;;;;;;26.20;83.40;;;;;;5055365;28;20012;-62
2022/08/03 05:20:08;;;;;;;;;;;26.20;83.10;;;;;;5054502;28;20378;-65
2022/08/03 05:22:33;;;;;;;;;;;26.00;82.20;;;;;;5052327;28;20417;-63
2022/08/03 05:24:59;;;;;;;;;;;26.30;82.70;;;;;;5049136;28;19924;-64
2022/08/03 05:27:25;;;;;;;;;;;26.30;82.50;;;;;;5070130;28;19978;-62
2022/08/03 05:29:51;;;;;;;;;;;26.50;82.30;;;;;;5056193;28;20012;-62
2022/08/03 05:32:16;;;;;;;;;;;26.70;82.20;;;;;;5056144;28;19946;-62
2022/08/03 05:34:42;;;;;;;;;;;26.50;82.10;;;;;;5071268;28;19924;-62
2022/08/03 05:37:08;;;;;;;;;;;26.40;81.80;;;;;;5066684;28;20031;-61
2022/08/03 05:39:34;;;;;;;;;;;26.50;82.10;;;;;;5054230;28;19925;-62
2022/08/03 05:41:59;;;;;;;;;;;27.00;82.10;;;;;;5036268;28;19976;-62
2022/08/03 05:44:25;;;;;;;;;;;26.90;82.00;;;;;;5053002;28;20282;-62
2022/08/03 05:46:51;;;;;;;;;;;26.90;81.90;;;;;;5055848;28;20402;-62
2022/08/03 05:49:17;;;;;;;;;;;26.90;81.90;;;;;;5051631;28;19931;-62
2022/08/03 05:51:42;;;;;;;;;;;26.80;82.00;;;;;;5053620;28;19928;-63
2022/08/03 05:54:08;;;;;;;;;;;27.20;82.10;;;;;;5053675;28;20017;-62
2022/08/03 05:56:34;;;;;;;;;;;27.20;81.90;;;;;;5055465;28;19925;-62
2022/08/03 05:58:59;;;;;;;;;;;27.10;81.70;;;;;;5053568;28;19968;-63
2022/08/03 06:01:25;;;;;;;;;;;27.40;81.80;;;;;;5035874;28;19924;-62
2022/08/03 06:03:51;;;;;;;;;;;27.10;82.00;;;;;;5065744;28;19928;-62
2022/08/03 06:06:16;;;;;;;;;;;27.30;82.20;;;;;;5073646;28;20023;-62
2022/08/03 06:08:45;;;;;;;;;;;27.10;82.00;;;;;;5065456;28;20377;-68
2022/08/03 06:11:11;;;;;;;;;;;27.50;82.40;;;;;;5053184;28;19929;-61
2022/08/03 06:13:36;;;;;;;;;;;27.20;82.20;;;;;;5053499;28;19931;-62
2022/08/03 06:16:02;;;;;;;;;;;27.20;82.20;;;;;;5035777;28;19929;-61
2022/08/03 06:18:28;;;;;;;;;;;27.40;82.00;;;;;;5058646;28;19925;-62
2022/08/03 06:20:53;;;;;;;;;;;27.30;82.40;;;;;;5071887;28;19924;-62
2022/08/03 06:23:19;;;;;;;;;;;27.10;82.10;;;;;;5073802;28;20015;-62
2022/08/03 06:25:45;;;;;;;;;;;27.20;82.30;;;;;;5054024;28;20284;-62
2022/08/03 06:28:12;;;;;;;;;;;27.40;82.30;;;;;;5053299;28;19932;-66
2022/08/03 06:30:38;;;;;;;;;;;27.40;82.50;;;;;;5064700;28;19925;-62
2022/08/03 06:33:04;;;;;;;;;;;27.30;82.40;;;;;;5065112;28;20288;-66
2022/08/03 06:35:29;;;;;;;;;;;27.50;82.40;;;;;;5073690;28;20007;-67
2022/08/03 06:37:55;;;;;;;;;;;27.60;82.50;;;;;;5073653;28;19925;-68
2022/08/03 06:40:30;;;;;;;;;;;27.50;82.60;;;;;;5068857;28;19943;-67
2022/08/03 06:42:56;;;;;;;;;;;27.60;82.70;;;;;;5071044;28;20405;-68
2022/08/03 06:45:22;;;;;;;;;;;27.60;82.60;;;;;;5072083;28;19978;-68
2022/08/03 06:47:49;;;;;;;;;;;27.50;82.30;;;;;;5073726;28;19929;-63
2022/08/03 06:50:14;;;;;;;;;;;27.60;82.80;;;;;;5039400;28;19993;-63
2022/08/03 06:52:40;;;;;;;;;;;27.80;82.50;;;;;;5056991;28;19924;-62
2022/08/03 06:55:06;;;;;;;;;;;27.60;82.30;;;;;;5076874;28;19932;-69
2022/08/03 06:57:32;;;;;;;;;;;27.70;82.00;;;;;;5075143;28;20267;-62
2022/08/03 07:00:00;;;;;;;;;;;27.70;82.40;;;;;;5066360;28;19928;-69
2022/08/03 07:02:27;;;;;;;;;;;27.60;82.30;;;;;;5049884;28;20070;-64
2022/08/03 07:04:53;;;;;;;;;;;27.80;82.50;;;;;;5058543;28;20009;-62
2022/08/03 07:07:19;;;;;;;;;;;27.80;81.90;;;;;;5075625;28;20378;-62
2022/08/03 07:09:45;;;;;;;;;;;27.90;82.40;;;;;;5075593;28;20264;-62
2022/08/03 07:12:10;;;;;;;;;;;27.60;82.40;;;;;;5073116;28;19931;-62
2022/08/03 07:14:36;;;;;;;;;;;27.90;82.50;;;;;;5065684;28;19925;-62
2022/08/03 07:17:02;;;;;;;;;;;28.00;82.40;;;;;;5070192;28;20301;-69
2022/08/03 07:19:27;;;;;;;;;;;27.70;82.40;;;;;;5076860;28;20036;-69
2022/08/03 07:21:53;;;;;;;;;;;28.00;82.70;;;;;;5068325;28;19924;-69
2022/08/03 07:24:19;;;;;;;;;;;28.00;82.90;;;;;;5058009;28;19931;-64
2022/08/03 07:26:44;;;;;;;;;;;27.90;82.10;;;;;;5056396;28;19933;-63
2022/08/03 07:29:10;;;;;;;;;;;28.00;82.80;;;;;;5057002;28;20003;-63
2022/08/03 07:31:36;;;;;;;;;;;28.00;82.60;;;;;;5040168;28;20363;-68
2022/08/03 07:34:01;;;;;;;;;;;27.90;82.60;;;;;;5068847;28;19925;-68
2022/08/03 07:36:27;;;;;;;;;;;27.80;82.10;;;;;;5072996;28;19928;-68
2022/08/03 07:38:53;;;;;;;;;;;27.90;82.50;;;;;;5075165;28;19924;-68
2022/08/03 07:41:18;;;;;;;;;;;28.00;82.40;;;;;;5076436;28;19924;-63
2022/08/03 07:43:44;;;;;;;;;;;28.00;82.30;;;;;;5076346;28;19924;-66
2022/08/03 07:46:09;;;;;;;;;;;28.10;82.30;;;;;;5039652;28;19925;-63
2022/08/03 07:48:35;;;;;;;;;;;28.30;82.30;;;;;;5057198;28;19970;-62
2022/08/03 07:51:02;;;;;;;;;;;28.40;82.10;;;;;;5056546;28;19925;-63
2022/08/03 07:53:27;;;;;;;;;;;28.40;82.10;;;;;;5054920;28;20019;-62
2022/08/03 07:55:53;;;;;;;;;;;28.30;81.80;;;;;;5042116;28;20161;-62
2022/08/03 07:58:19;;;;;;;;;;;28.60;82.00;;;;;;5072962;28;20429;-62
2022/08/03 08:00:44;;;;;;;;;;;28.70;82.20;;;;;;5075724;28;19982;-62
2022/08/03 08:03:12;;;;;;;;;;;28.70;81.90;;;;;;5076009;28;19972;-62
2022/08/03 08:05:38;;;;;;;;;;;28.20;80.90;;;;;;5074534;28;20011;-63
2022/08/03 08:08:04;;;;;;;;;;;28.30;81.20;;;;;;5057298;28;19983;-63
2022/08/03 08:10:29;;;;;;;;;;;28.80;81.70;;;;;;5055287;28;19925;-63
2022/08/03 08:12:55;;;;;;;;;;;28.70;81.40;;;;;;5055780;28;19932;-62
2022/08/03 08:15:21;;;;;;;;;;;28.40;81.50;;;;;;5055796;28;19925;-62
2022/08/03 08:17:47;;;;;;;;;;;28.70;81.60;;;;;;5060153;28;19947;-63
2022/08/03 08:20:39;;;;;;;;;;;28.40;81.60;;;;;;5074923;28;19931;-63
2022/08/03 08:23:05;;;;;;;;;;;28.60;80.30;;;;;;5052575;28;19978;-63
2022/08/03 08:25:31;;;;;;;;;;;28.80;81.80;;;;;;5055277;28;19975;-62
2022/08/03 08:27:57;;;;;;;;;;;29.00;81.40;;;;;;5061512;28;19964;-64
2022/08/03 08:30:23;;;;;;;;;;;28.60;81.70;;;;;;5039089;28;19925;-63
2022/08/03 08:32:48;;;;;;;;;;;28.90;81.60;;;;;;5055421;28;19925;-62
2022/08/03 08:35:14;;;;;;;;;;;28.80;81.90;;;;;;5055404;28;20003;-62
2022/08/03 08:37:40;;;;;;;;;;;28.60;81.60;;;;;;5055187;28;19924;-63
2022/08/03 08:40:06;;;;;;;;;;;28.80;81.70;;;;;;5034319;28;20397;-63
2022/08/03 08:42:31;;;;;;;;;;;28.70;81.50;;;;;;5057015;28;20015;-62
2022/08/03 08:44:57;;;;;;;;;;;28.90;81.70;;;;;;5073602;28;19960;-62
2022/08/03 08:47:28;;;;;;;;;;;28.70;81.60;;;;;;5072541;28;19931;-62
2022/08/03 08:49:54;;;;;;;;;;;28.90;80.70;;;;;;5051795;28;19925;-62
2022/08/03 08:52:23;;;;;;;;;;;29.10;81.80;;;;;;5037210;28;20320;-63
2022/08/03 08:54:49;;;;;;;;;;;28.70;81.80;;;;;;5054906;28;19925;-63
2022/08/03 08:57:14;;;;;;;;;;;28.70;81.40;;;;;;5055271;28;20290;-62
2022/08/03 08:59:40;;;;;;;;;;;28.80;81.70;;;;;;5058524;28;20003;-63
2022/08/03 09:02:06;;;;;;;;;;;28.80;81.30;;;;;;5055403;28;19925;-63
2022/08/03 09:04:31;;;;;;;;;;;29.00;81.60;;;;;;5054529;28;19925;-63
2022/08/03 09:06:57;;;;;;;;;;;29.20;81.70;;;;;;5053628;28;19951;-63
2022/08/03 09:09:22;;;;;;;;;;;29.20;82.10;;;;;;5035725;28;20294;-63
2022/08/03 09:11:48;;;;;;;;;;;28.80;81.20;;;;;;5035221;28;19971;-63
2022/08/03 09:14:14;;;;;;;;;;;29.20;81.90;;;;;;5040944;28;20389;-63
2022/08/03 09:16:58;;;;;;;;;;;29.10;81.60;;;;;;5054639;28;19925;-63
2022/08/03 09:19:24;;;;;;;;;;;29.10;80.70;;;;;;5049109;28;20353;-63
2022/08/03 09:22:06;;;;;;;;;;;29.00;81.50;;;;;;5044085;28;20003;-63
2022/08/03 09:24:32;;;;;;;;;;;28.90;82.00;;;;;;5054477;28;19929;-62
2022/08/03 09:26:57;;;;;;;;;;;29.00;81.70;;;;;;5051982;28;19928;-63
2022/08/03 09:29:23;;;;;;;;;;;28.90;81.90;;;;;;5064790;28;19972;-63
2022/08/03 09:31:48;;;;;;;;;;;28.90;81.80;;;;;;5050523;28;20027;-63
2022/08/03 09:34:15;;;;;;;;;;;28.90;81.90;;;;;;5062559;28;19925;-63
2022/08/03 09:36:44;;;;;;;;;;;28.70;82.10;;;;;;5054340;28;19925;-63
2022/08/03 09:39:11;;;;;;;;;;;29.00;80.80;;;;;;5054556;28;19932;-63
2022/08/03 09:41:37;;;;;;;;;;;29.00;82.20;;;;;;5053718;28;19935;-63
2022/08/03 09:44:03;;;;;;;;;;;29.10;82.20;;;;;;5033050;28;19925;-64
2022/08/03 09:46:30;;;;;;;;;;;28.70;81.50;;;;;;5034272;28;19925;-64
2022/08/03 09:49:09;;;;;;;;;;;29.00;82.10;;;;;;5034094;28;19929;-64
2022/08/03 09:51:35;;;;;;;;;;;28.90;80.70;;;;;;5046887;28;19932;-63
2022/08/03 09:54:02;;;;;;;;;;;29.00;82.10;;;;;;5050143;28;20309;-65
2022/08/03 09:56:41;;;;;;;;;;;28.90;82.00;;;;;;5065134;28;19925;-73
2022/08/03 09:59:07;;;;;;;;;;;29.00;81.00;;;;;;5052815;28;19935;-71
2022/08/03 10:01:33;;;;;;;;;;;28.90;82.40;;;;;;5052779;28;19971;-63
2022/08/03 10:03:59;;;;;;;;;;;28.80;82.30;;;;;;5050166;28;19925;-67
2022/08/03 10:06:26;;;;;;;;;;;28.90;82.10;;;;;;5036950;28;19925;-64
2022/08/03 10:09:26;;;;;;;;;;;28.60;82.10;;;;;;5052172;28;19964;-64
2022/08/03 10:11:52;;;;;;;;;;;28.80;80.70;;;;;;5010211;28;20354;-70
2022/08/03 10:14:18;;;;;;;;;;;28.60;81.90;;;;;;4991146;28;19980;-72
2022/08/03 10:16:43;;;;;;;;;;;28.70;81.90;;;;;;5016317;28;19925;-62
2022/08/03 10:19:09;;;;;;;;;;;28.50;82.30;;;;;;5011752;28;20599;-62
2022/08/03 10:21:36;;;;;;;;;;;28.30;82.10;;;;;;5013275;28;19933;-72
2022/08/03 10:24:02;;;;;;;;;;;28.40;82.70;;;;;;4998611;28;19925;-72
2022/08/03 10:26:27;;;;;;;;;;;28.60;82.90;;;;;;5015247;28;19930;-73
2022/08/03 10:28:53;;;;;;;;;;;28.60;82.60;;;;;;4983396;28;19925;-75
2022/08/03 10:31:19;;;;;;;;;;;28.80;82.70;;;;;;4999321;28;20394;-73
2022/08/03 10:33:48;;;;;;;;;;;28.80;82.60;;;;;;5014908;28;19925;-68
2022/08/03 10:36:15;;;;;;;;;;;28.80;82.60;;;;;;5012490;28;20012;-63
2022/08/03 10:38:46;;;;;;;;;;;28.80;82.20;;;;;;4997942;28;19980;-72
2022/08/03 10:41:12;;;;;;;;;;;28.80;80.90;;;;;;5015439;28;19969;-66
2022/08/03 10:43:40;;;;;;;;;;;29.00;82.20;;;;;;5015511;28;19964;-73
2022/08/03 10:46:06;;;;;;;;;;;29.10;81.00;;;;;;5036124;28;20361;-71
2022/08/03 10:48:34;;;;;;;;;;;28.80;81.80;;;;;;5049298;28;19929;-73
2022/08/03 10:50:59;;;;;;;;;;;29.20;81.80;;;;;;5045117;28;19929;-62
2022/08/03 10:53:43;;;;;;;;;;;29.30;81.80;;;;;;5036190;28;20575;-63
2022/08/03 10:59:12;;;;;;;;;;;29.40;80.40;;;;;;5066564;28;19932;-63
2022/08/03 11:01:47;;;;;;;;;;;29.30;81.10;;;;;;5047808;28;19925;-63
2022/08/03 11:04:13;;;;;;;;;;;29.50;80.20;;;;;;5029618;28;19925;-71
2022/08/03 11:06:39;;;;;;;;;;;29.20;81.30;;;;;;5039327;28;20279;-68
2022/08/03 11:09:08;;;;;;;;;;;29.70;81.00;;;;;;5036255;28;19933;-63
2022/08/03 11:11:33;;;;;;;;;;;29.40;79.50;;;;;;5035165;28;20402;-66
2022/08/03 11:13:59;;;;;;;;;;;29.40;80.40;;;;;;5041000;28;19924;-63
2022/08/03 11:16:25;;;;;;;;;;;29.80;80.60;;;;;;5056622;28;19925;-64
2022/08/03 11:18:54;;;;;;;;;;;29.50;80.50;;;;;;5034568;28;19925;-64
2022/08/03 11:21:20;;;;;;;;;;;29.60;79.10;;;;;;5056852;28;20012;-65
2022/08/03 11:23:46;;;;;;;;;;;29.60;80.30;;;;;;5054317;28;20015;-64
2022/08/03 11:26:12;;;;;;;;;;;29.50;80.40;;;;;;5056637;28;19932;-63
2022/08/03 11:28:38;;;;;;;;;;;29.70;80.40;;;;;;5052724;28;20319;-64
2022/08/03 11:31:23;;;;;;;;;;;29.60;80.30;;;;;;5042308;28;19925;-64
2022/08/03 11:34:04;;;;;;;;;;;29.70;79.20;;;;;;5033618;28;20306;-64
2022/08/03 11:36:30;;;;;;;;;;;29.50;79.10;;;;;;5036629;28;19925;-64
2022/08/03 11:39:11;;;;;;;;;;;29.40;80.30;;;;;;5054223;28;19921;-62
2022/08/03 11:41:37;;;;;;;;;;;29.60;79.20;;;;;;5054714;28;20359;-65
2022/08/03 11:44:02;;;;;;;;;;;29.40;80.20;;;;;;5042311;28;19964;-63
2022/08/03 11:46:28;;;;;;;;;;;29.30;79.70;;;;;;5046744;28;19925;-64
2022/08/03 11:48:57;;;;;;;;;;;29.40;80.10;;;;;;5067240;28;19932;-69
2022/08/03 11:51:24;;;;;;;;;;;29.60;80.20;;;;;;5052799;28;19929;-67
2022/08/03 11:53:51;;;;;;;;;;;29.60;80.40;;;;;;5048829;28;20071;-70
2022/08/03 11:56:16;;;;;;;;;;;29.60;80.20;;;;;;5048167;28;19985;-71
2022/08/03 11:58:46;;;;;;;;;;;29.20;79.70;;;;;;5053519;28;20023;-69
2022/08/03 12:01:12;;;;;;;;;;;29.80;78.80;;;;;;5056731;28;19924;-72
2022/08/03 12:03:37;;;;;;;;;;;29.40;79.70;;;;;;5053021;28;19947;-71
2022/08/03 12:06:03;;;;;;;;;;;29.50;79.50;;;;;;5035673;28;19968;-66
2022/08/03 12:08:32;;;;;;;;;;;29.70;79.80;;;;;;5054136;28;20346;-66
2022/08/03 12:10:58;;;;;;;;;;;29.70;78.50;;;;;;5063603;28;19924;-67
2022/08/03 12:13:25;;;;;;;;;;;29.50;79.60;;;;;;5054267;28;19980;-63
2022/08/03 12:15:51;;;;;;;;;;;29.90;79.50;;;;;;5075323;28;19925;-62
2022/08/03 12:18:17;;;;;;;;;;;29.60;79.40;;;;;;5054052;28;19935;-63
2022/08/03 12:20:44;;;;;;;;;;;29.80;79.90;;;;;;5067883;28;19929;-62
2022/08/03 12:23:09;;;;;;;;;;;29.50;79.20;;;;;;5034260;28;19979;-63
2022/08/03 12:25:35;;;;;;;;;;;30.00;79.30;;;;;;5052185;28;19928;-63
2022/08/03 12:28:07;;;;;;;;;;;29.80;79.50;;;;;;5055270;28;19932;-63
2022/08/03 12:30:32;;;;;;;;;;;29.60;77.80;;;;;;5056657;28;19979;-63
2022/08/03 12:32:58;;;;;;;;;;;29.90;79.20;;;;;;5033974;28;19932;-63
2022/08/03 12:35:24;;;;;;;;;;;29.60;78.90;;;;;;5050975;28;19932;-62
2022/08/03 12:37:50;;;;;;;;;;;29.70;78.90;;;;;;5055239;28;19947;-63
2022/08/03 12:40:23;;;;;;;;;;;29.80;79.20;;;;;;5054876;28;19978;-62
2022/08/03 12:42:48;;;;;;;;;;;29.80;79.30;;;;;;5072924;28;19931;-63
2022/08/03 12:45:33;;;;;;;;;;;29.90;79.40;;;;;;5069290;28;20360;-63
2022/08/03 12:47:59;;;;;;;;;;;29.90;77.90;;;;;;5074937;28;19924;-63
2022/08/03 12:50:32;;;;;;;;;;;29.80;79.20;;;;;;5073735;28;20389;-63
2022/08/03 12:53:01;;;;;;;;;;;29.80;77.70;;;;;;5067384;28;19924;-62
2022/08/03 12:55:32;;;;;;;;;;;29.80;79.10;;;;;;5066300;28;19975;-62
2022/08/03 12:57:58;;;;;;;;;;;29.80;79.10;;;;;;5055012;28;19925;-62
2022/08/03 13:00:26;;;;;;;;;;;29.60;79.20;;;;;;5054986;28;19978;-62
2022/08/03 13:03:02;;;;;;;;;;;29.90;79.10;;;;;;5060478;28;20337;-62
2022/08/03 13:05:28;;;;;;;;;;;29.80;77.80;;;;;;5054554;28;19931;-63
2022/08/03 13:07:53;;;;;;;;;;;29.50;78.30;;;;;;5050314;28;20008;-63
2022/08/03 13:10:26;;;;;;;;;;;29.70;78.60;;;;;;5016565;28;19975;-62
2022/08/03 13:12:52;;;;;;;;;;;29.60;76.90;;;;;;5056112;28;20329;-63
2022/08/03 13:15:17;;;;;;;;;;;30.00;78.10;;;;;;5054426;28;19924;-63
2022/08/03 13:17:43;;;;;;;;;;;29.50;77.10;;;;;;5054417;28;19978;-62
2022/08/03 13:20:09;;;;;;;;;;;29.70;77.10;;;;;;5062504;28;19931;-63
2022/08/03 13:22:35;;;;;;;;;;;29.70;76.50;;;;;;5061751;28;19974;-62
2022/08/03 13:25:01;;;;;;;;;;;29.60;76.80;;;;;;5059412;28;19924;-62
2022/08/03 13:27:27;;;;;;;;;;;30.00;76.90;;;;;;5054520;28;19929;-63
2022/08/03 13:29:53;;;;;;;;;;;29.90;76.50;;;;;;5053439;28;19925;-63
2022/08/03 13:32:19;;;;;;;;;;;29.70;76.10;;;;;;5054358;28;20023;-63
2022/08/03 13:34:45;;;;;;;;;;;29.80;75.90;;;;;;5052749;28;20302;-63
2022/08/03 13:37:11;;;;;;;;;;;29.60;75.40;;;;;;5064683;28;20282;-63
2022/08/03 13:39:36;;;;;;;;;;;29.50;75.40;;;;;;5073482;28;19970;-63
2022/08/03 13:42:02;;;;;;;;;;;29.80;75.40;;;;;;5052596;28;19928;-63
2022/08/03 13:44:28;;;;;;;;;;;29.80;75.00;;;;;;5068253;28;19982;-63
2022/08/03 13:46:53;;;;;;;;;;;29.70;74.60;;;;;;5041055;28;19972;-62
2022/08/03 13:49:19;;;;;;;;;;;29.70;74.50;;;;;;5052941;28;19932;-62
2022/08/03 13:51:45;;;;;;;;;;;29.80;74.70;;;;;;5055096;28;19929;-63
2022/08/03 13:54:10;;;;;;;;;;;29.60;74.60;;;;;;5049701;28;19925;-63
2022/08/03 13:56:36;;;;;;;;;;;29.60;74.00;;;;;;5056232;28;19932;-64
2022/08/03 13:59:01;;;;;;;;;;;29.80;73.90;;;;;;5074028;28;19931;-63
2022/08/03 14:01:27;;;;;;;;;;;29.50;73.00;;;;;;5052492;28;19929;-62
2022/08/03 14:03:55;;;;;;;;;;;29.60;73.00;;;;;;5061260;28;19931;-63
2022/08/03 14:06:21;;;;;;;;;;;29.70;73.00;;;;;;5056251;28;19925;-63
2022/08/03 14:08:49;;;;;;;;;;;29.80;73.10;;;;;;5053617;28;20058;-63
2022/08/03 14:11:15;;;;;;;;;;;29.60;71.70;;;;;;5032206;28;19932;-63
2022/08/03 14:13:40;;;;;;;;;;;29.60;72.50;;;;;;5051916;28;19924;-62
2022/08/03 14:16:06;;;;;;;;;;;29.60;72.20;;;;;;5034516;28;20343;-63
2022/08/03 14:18:31;;;;;;;;;;;29.40;71.90;;;;;;5050199;28;20375;-63
2022/08/03 14:20:57;;;;;;;;;;;29.40;72.10;;;;;;5039358;28;20016;-63
2022/08/03 14:23:23;;;;;;;;;;;29.70;72.40;;;;;;5049239;28;19925;-63